createdAt,value
2022-09-02T00:03:17.188Z,18.20
2022-09-02T00:08:19.686Z,18.20
2022-09-02T00:13:22.871Z,18.20
2022-09-02T00:18:26.286Z,18.00
2022-09-02T00:23:28.465Z,17.80
2022-09-02T00:28:30.859Z,17.80
2022-09-02T00:33:33.246Z,17.70
2022-09-02T00:38:36.999Z,17.70
2022-09-02T00:43:55.473Z,17.60
2022-09-02T00:49:09.513Z,17.00
2022-09-02T00:54:13.903Z,17.50
2022-09-02T00:59:23.654Z,17.40
2022-09-02T01:04:26.126Z,17.40
2022-09-02T01:09:28.618Z,17.30
2022-09-02T01:14:31.219Z,17.40
2022-09-02T01:19:38.640Z,17.20
2022-09-02T01:24:41.088Z,17.30
2022-09-02T01:29:43.678Z,17.10
2022-09-02T01:34:46.492Z,17.00
2022-09-02T01:39:50.556Z,17.00
2022-09-02T01:44:52.997Z,16.90
2022-09-02T01:49:56.784Z,16.90
2022-09-02T01:54:59.451Z,16.70
2022-09-02T02:00:04.196Z,16.70
2022-09-02T02:05:15.818Z,16.60
2022-09-02T02:10:21.357Z,16.50
2022-09-02T02:20:27.261Z,16.50
2022-09-02T02:25:29.745Z,16.30
2022-09-02T02:30:32.564Z,16.50
2022-09-02T02:35:35.940Z,16.30
2022-09-02T02:40:38.372Z,16.30
2022-09-02T02:45:40.975Z,16.10
2022-09-02T02:50:43.272Z,16.20
2022-09-02T02:55:49.910Z,16.20
2022-09-02T03:00:54.606Z,16.10
2022-09-02T03:05:57.198Z,16.10
2022-09-02T03:11:01.779Z,16.10
2022-09-02T03:16:08.187Z,16.10
2022-09-02T03:21:10.985Z,16.00
2022-09-02T03:26:20.144Z,15.80
2022-09-02T03:31:24.685Z,15.90
2022-09-02T03:36:31.684Z,15.70
2022-09-02T03:41:34.609Z,16.00
2022-09-02T03:46:37.111Z,15.70
2022-09-02T03:51:42.334Z,15.70
2022-09-02T03:56:45.357Z,15.60
2022-09-02T04:01:48.797Z,15.70
2022-09-02T04:06:51.160Z,15.70
2022-09-02T04:11:54.003Z,15.50
2022-09-02T04:17:52.553Z,15.80
2022-09-02T04:23:12.966Z,15.70
2022-09-02T04:28:16.457Z,15.60
2022-09-02T04:33:18.965Z,15.20
2022-09-02T04:38:21.633Z,15.40
2022-09-02T04:43:25.114Z,15.30
2022-09-02T04:48:27.912Z,15.10
2022-09-02T04:53:30.059Z,15.30
2022-09-02T04:58:32.596Z,15.30
2022-09-02T05:03:36.516Z,15.20
2022-09-02T05:08:39.394Z,15.40
2022-09-02T05:13:42.798Z,15.10
2022-09-02T05:18:45.056Z,15.40
2022-09-02T05:23:47.578Z,15.20
2022-09-02T05:28:50.444Z,15.10
2022-09-02T05:33:53.308Z,15.20
2022-09-02T05:38:55.927Z,15.00
2022-09-02T05:44:01.348Z,15.20
2022-09-02T05:49:07.226Z,15.40
2022-09-02T05:54:14.639Z,15.60
2022-09-02T05:59:16.876Z,15.40
2022-09-02T06:04:19.518Z,15.90
2022-09-02T06:09:23.745Z,15.90
2022-09-02T06:14:27.210Z,16.00
2022-09-02T06:19:30.352Z,16.20
2022-09-02T06:24:33.406Z,16.40
2022-09-02T06:29:37.856Z,16.60
2022-09-02T06:34:40.972Z,16.80
2022-09-02T06:39:44.776Z,17.00
2022-09-02T06:44:48.721Z,17.40
2022-09-02T06:49:50.984Z,17.40
2022-09-02T06:54:55.435Z,17.80
2022-09-02T07:00:02.284Z,18.10
2022-09-02T07:05:10.143Z,18.20
2022-09-02T07:10:14.171Z,18.60
2022-09-02T07:15:18.250Z,18.50
2022-09-02T07:20:20.481Z,19.30
2022-09-02T07:25:26.297Z,19.60
2022-09-02T07:30:28.722Z,19.80
2022-09-02T07:35:31.788Z,20.10
2022-09-02T07:40:36.218Z,20.30
2022-09-02T07:45:39.886Z,20.50
2022-09-02T07:50:43.299Z,20.80
2022-09-02T07:55:47.112Z,21.00
2022-09-02T08:00:51.210Z,21.30
2022-09-02T08:05:54.681Z,21.50
2022-09-02T08:10:57.157Z,21.70
2022-09-02T08:15:59.968Z,21.90
2022-09-02T08:21:02.542Z,22.20
2022-09-02T08:26:09.244Z,22.60
2022-09-02T08:31:11.433Z,22.60
2022-09-02T08:36:15.153Z,22.80
2022-09-02T08:41:26.524Z,23.00
2022-09-02T08:46:32.078Z,23.20
2022-09-02T08:51:53.175Z,23.50
2022-09-02T08:56:58.000Z,23.60
2022-09-02T09:02:06.920Z,23.80
2022-09-02T09:07:18.863Z,24.00
2022-09-02T09:12:21.076Z,24.20
2022-09-02T09:17:32.482Z,24.00
2022-09-02T09:22:38.563Z,24.50
2022-09-02T09:27:41.125Z,24.70
2022-09-02T09:32:48.473Z,24.80
2022-09-02T09:37:52.527Z,24.90
2022-09-02T09:43:24.440Z,24.90
2022-09-02T09:48:29.787Z,25.30
2022-09-02T09:53:34.551Z,25.50
2022-09-02T09:58:37.051Z,25.60
2022-09-02T10:03:47.826Z,25.80
2022-09-02T10:08:58.140Z,25.70
2022-09-02T10:14:09.358Z,26.10
2022-09-02T10:19:51.703Z,25.90
2022-09-02T10:25:11.732Z,26.40
2022-09-02T10:30:21.713Z,26.40
2022-09-02T10:35:47.082Z,26.60
2022-09-02T10:41:02.106Z,26.70
2022-09-02T10:46:09.697Z,26.80
2022-09-02T10:51:28.881Z,27.10
2022-09-02T10:56:40.317Z,27.10
2022-09-02T11:02:23.924Z,27.40
2022-09-02T11:07:40.936Z,27.60
2022-09-02T11:13:01.039Z,27.80
2022-09-02T11:18:26.715Z,28.00
2022-09-02T11:24:00.680Z,28.10
2022-09-02T11:29:17.243Z,28.20
2022-09-02T11:34:34.923Z,28.80
2022-09-02T11:40:02.313Z,28.90
2022-09-02T11:45:33.563Z,29.20
2022-09-02T11:50:53.961Z,29.50
2022-09-02T11:56:24.424Z,29.80
2022-09-02T12:01:43.830Z,30.10
2022-09-02T12:07:09.573Z,30.40
2022-09-02T12:12:38.150Z,30.60
2022-09-02T12:18:36.853Z,30.80
2022-09-02T12:23:52.524Z,31.10
2022-09-02T12:29:10.936Z,31.30
2022-09-02T12:34:25.827Z,31.50
2022-09-02T12:39:28.010Z,31.80
2022-09-02T12:44:54.118Z,32.00
2022-09-02T12:50:05.448Z,32.20
2022-09-02T12:55:12.730Z,32.40
2022-09-02T13:00:25.469Z,32.60
2022-09-02T13:06:01.450Z,32.80
2022-09-02T13:11:37.907Z,33.10
2022-09-02T13:16:42.816Z,33.30
2022-09-02T13:22:06.220Z,33.50
2022-09-02T13:27:24.557Z,33.80
2022-09-02T13:32:29.707Z,34.20
2022-09-02T13:37:39.057Z,34.60
2022-09-02T13:42:54.695Z,35.10
2022-09-02T13:47:59.684Z,35.50
2022-09-02T13:58:29.969Z,36.50
2022-09-02T14:03:33.181Z,37.00
2022-09-02T14:08:35.770Z,37.70
2022-09-02T14:13:41.263Z,38.30
2022-09-02T14:19:07.640Z,38.90
2022-09-02T14:24:13.516Z,39.60
2022-09-02T14:29:20.467Z,40.20
2022-09-02T14:34:43.404Z,40.80
2022-09-02T14:40:12.525Z,41.50
2022-09-02T14:45:24.409Z,42.00
2022-09-02T14:50:30.692Z,42.40
2022-09-02T14:55:52.626Z,42.80
2022-09-02T15:01:00.913Z,43.30
2022-09-02T15:06:03.356Z,43.70
2022-09-02T15:11:09.377Z,44.10
2022-09-02T15:16:11.607Z,44.40
2022-09-02T15:21:14.004Z,44.60
2022-09-02T15:26:17.351Z,44.90
2022-09-02T15:31:19.713Z,45.20
2022-09-02T15:36:23.603Z,45.40
2022-09-02T15:41:27.481Z,45.50
2022-09-02T15:46:31.619Z,45.40
2022-09-02T15:51:35.686Z,45.20
2022-09-02T15:56:40.529Z,44.90
2022-09-02T16:01:45.979Z,44.60
2022-09-02T16:06:49.917Z,44.30
2022-09-02T16:11:55.834Z,44.00
2022-09-02T16:16:58.144Z,43.40
2022-09-02T16:22:00.409Z,42.20
2022-09-02T16:27:03.082Z,40.70
2022-09-02T16:32:24.367Z,39.30
2022-09-02T16:37:27.914Z,38.00
2022-09-02T16:42:31.392Z,36.80
2022-09-02T16:47:36.048Z,35.80
2022-09-02T16:52:41.553Z,34.90
2022-09-02T16:57:43.739Z,34.10
2022-09-02T17:02:46.011Z,33.50
2022-09-02T17:07:48.308Z,32.90
2022-09-02T17:12:50.578Z,32.40
2022-09-02T17:17:53.562Z,32.00
2022-09-02T17:22:56.440Z,31.40
2022-09-02T17:27:58.615Z,31.00
2022-09-02T17:33:00.704Z,30.50
2022-09-02T17:38:03.298Z,30.00
2022-09-02T17:43:05.515Z,29.50
2022-09-02T17:48:32.235Z,29.00
2022-09-02T17:53:29.900Z,28.60
2022-09-02T17:58:34.784Z,28.20
2022-09-02T18:03:55.801Z,28.00
2022-09-02T18:09:02.117Z,27.50
2022-09-02T18:14:47.036Z,27.10
2022-09-02T18:20:18.584Z,26.90
2022-09-02T18:25:49.356Z,26.50
2022-09-02T18:31:07.138Z,26.20
2022-09-02T18:36:36.784Z,26.00
2022-09-02T18:42:13.911Z,25.50
2022-09-02T18:47:26.599Z,25.40
2022-09-02T18:52:30.373Z,25.10
2022-09-02T18:57:43.655Z,24.90
2022-09-02T19:03:02.342Z,24.80
2022-09-02T19:08:32.730Z,24.70
2022-09-02T19:14:02.911Z,24.30
2022-09-02T19:19:09.528Z,24.20
2022-09-02T19:24:26.042Z,24.10
2022-09-02T19:29:29.067Z,23.80
2022-09-02T19:34:39.842Z,23.80
2022-09-02T19:39:54.541Z,23.80
2022-09-02T19:45:00.371Z,23.00
2022-09-02T19:50:05.272Z,23.40
2022-09-02T19:55:09.751Z,23.30
2022-09-02T20:00:15.108Z,23.30
2022-09-02T20:05:17.745Z,23.10
2022-09-02T20:10:27.678Z,22.90
2022-09-02T20:15:37.421Z,22.80
2022-09-02T20:20:45.504Z,22.80
2022-09-02T20:26:02.407Z,22.00
2022-09-02T20:31:31.574Z,22.20
2022-09-02T20:37:02.497Z,22.30
2022-09-02T20:42:42.252Z,22.10
2022-09-02T20:48:02.642Z,21.80
2022-09-02T20:53:26.939Z,21.50
2022-09-02T20:59:11.500Z,21.20
2022-09-02T21:04:38.686Z,21.20
2022-09-02T21:10:06.677Z,20.70
2022-09-02T21:15:39.990Z,20.80
2022-09-02T21:20:50.875Z,20.60
2022-09-02T21:25:59.470Z,20.60
2022-09-02T21:31:22.023Z,20.40
2022-09-02T21:36:30.236Z,20.20
2022-09-02T21:42:16.804Z,20.10
2022-09-02T21:47:35.228Z,19.90
2022-09-02T21:52:52.842Z,19.80
2022-09-02T21:58:13.704Z,19.70
2022-09-02T22:03:36.992Z,19.60
2022-09-02T22:08:44.591Z,19.40
2022-09-02T22:13:48.123Z,19.40
2022-09-02T22:19:02.518Z,19.20
2022-09-02T22:24:05.010Z,19.10
2022-09-02T22:29:31.634Z,19.00
2022-09-02T22:34:41.717Z,18.80
2022-09-02T22:39:54.109Z,18.80
2022-09-02T22:45:30.947Z,18.80
2022-09-02T22:50:57.973Z,18.80
2022-09-02T22:56:03.708Z,18.70
2022-09-02T23:01:34.738Z,18.70
2022-09-02T23:06:36.991Z,18.60
2022-09-02T23:12:06.926Z,18.80
2022-09-02T23:17:33.574Z,18.80
2022-09-02T23:22:53.748Z,18.90
2022-09-02T23:28:15.322Z,18.90
2022-09-02T23:33:25.679Z,18.60
2022-09-02T23:39:06.416Z,18.90
2022-09-02T23:44:10.528Z,19.00
2022-09-02T23:49:27.515Z,18.90
2022-09-02T23:54:58.965Z,19.00
